Weather observations for the past three days for
Asheboro, Asheboro Municipal Airport
Metric (Imperial)
Date Time (edt) Wind (kph) Vis. (km) Weather Sky Cond. Temperature (ºC) Relative Humidity Wind Chill (°C) Heat Index (°C) Pressure Precipitation (cm)
Air Dwpt 6 hour altimeter (cm) sea level (mb) 1 hr 3 hr 6 hr
Max. Min.
06 05:15 S 15 16.09 Fair CLR 16.5 11 70% 76.12 0.0
06 04:55 S 19 G 30 16.09 Fair CLR 16.7 11 69% 76.12 0.0
06 04:30 S 17 16.09 Partly Cloudy SCT090 16.8 10.8 68% 76.15 0.0
06 04:15 S 22 G 31 16.09 Mostly Cloudy BKN090 16.9 10.7 67% 76.15 0.0
06 03:55 S 22 G 31 16.09 Fair CLR 17 10.5 66% 76.15 0.0
06 03:35 S 17 G 28 16.09 Fair CLR 17 10.5 66% 76.12 0.0
06 03:15 S 13 16.09 Fair CLR 17 10.5 66% 76.12 0.0
06 02:55 S 15 16.09 Fair CLR 17 10.5 66% 76.15 0.0
06 02:35 S 19 16.09 Fair CLR 17 10.5 66% 76.15 0.0
06 02:15 S 13 G 26 16.09 Fair CLR 17.1 10.5 65% 76.15 0.0
06 01:55 S 17 G 31 16.09 Fair CLR 17.2 10.5 22.9 17.2 65% 76.17 0.0
06 01:35 S 19 G 28 16.09 Fair CLR 17.5 10.6 64% 76.17 0.0
06 01:15 S 19 G 28 16.09 Fair CLR 17.6 10.6 64% 76.17 0.0
06 00:55 S 22 G 30 16.09 Fair CLR 17.8 10.6 63% 76.17 0.0
06 00:35 S 20 G 31 16.09 Fair CLR 18 10.5 62% 76.15 0.0
06 00:15 S 13 16.09 Fair CLR 18 10.5 62% 76.2 0.0
05 23:55 S 19 G 28 16.09 Fair CLR 18 10.2 61% 76.17 0.0
05 23:35 S 19 G 28 16.09 Fair CLR 18.2 9.9 59% 76.17 0.0
05 23:15 S 19 G 26 16.09 Fair CLR 18.4 9.2 55% 76.17 0.0
05 22:55 S 15 16.09 Fair CLR 19 8.5 51% 76.17 0.0
05 22:35 S 11 16.09 Fair CLR 19.3 7.4 46% 76.17 0.0
05 22:15 S 13 16.09 Fair CLR 19.6 7.3 45% 76.17 0.0
05 21:55 SE 11 16.09 Fair CLR 19.8 7.1 44% 76.17 0.0
05 21:35 S 9 16.09 Fair CLR 20 7.1 43% 76.17 0.0
05 21:15 S 11 16.09 Fair CLR 20.5 7 42% 76.15 0.0
05 20:55 S 9 16.09 Fair CLR 20.7 6.7 40% 76.12 0.0
05 20:35 S 9 16.09 Fair CLR 21.1 6.5 39% 76.12 0.0
05 20:15 S 7 16.09 Fair CLR 22 6 36% 76.12 0.0
05 19:55 S 9 16.09 Fair CLR 23 5.7 26.6 23 33% 76.1 0.0
05 19:35 S 11 16.09 Fair CLR 23.7 5.6 31% 76.1 0.0
05 19:15 S 19 16.09 Fair CLR 24.2 5.5 30% 25 76.07 0.0
05 18:55 S 26 G 35 16.09 Fair CLR 24.9 5.4 29% 25 76.1 0.0
05 18:35 S 19 G 28 16.09 Fair CLR 25 5.6 29% 25 76.1 0.0
05 18:15 S 26 G 37 16.09 Partly Cloudy SCT080 25.4 5.2 27% 25 76.1 0.0
05 17:55 S 17 G 33 16.09 Mostly Cloudy BKN080 25.5 6 29% 26 76.1 0.0
05 17:35 S 28 G 35 16.09 Mostly Cloudy BKN080 26.2 6.1 28% 26 76.1 0.0
05 17:15 S 26 G 41 16.09 Partly Cloudy SCT080 25.6 5.2 27% 26 76.12 0.0
05 16:55 SW 22 G 35 16.09 Partly Cloudy SCT080 26.3 5.5 26% 26 76.12 0.0
05 16:35 S 26 G 37 16.09 Partly Cloudy SCT070 26.5 5.7 26% 26 76.12 0.0
05 16:15 S 19 G 31 16.09 Partly Cloudy SCT070 25.4 6.1 29% 26 76.12 0.0
05 15:55 S 24 G 30 16.09 Fair CLR 25.6 5.6 28% 26 76.15 0.0
05 15:35 S 20 G 33 16.09 Fair CLR 25.7 5.6 28% 26 76.17 0.0
05 15:15 S 28 G 37 16.09 Fair CLR 26.1 5.7 27% 26 76.2 0.0
05 14:55 S 22 G 33 16.09 Fair CLR 25.5 5.4 28% 26 76.23 0.0
05 14:35 S 17 G 28 16.09 Fair CLR 25.2 6 29% 25 76.25 0.0
05 14:15 S 20 G 30 16.09 Partly Cloudy SCT065 24.9 6 30% 25 76.28 0.0
05 13:55 S 13 16.09 Fair CLR 24.3 6.6 24.3 14.4 32% 25 76.28 0.0
05 13:35 S 11 G 19 16.09 Fair CLR 24.1 6.5 32% 25 76.28 0.0
05 12:55 SW 19 G 33 16.09 Fair CLR 23.8 6.1 32% 76.3 0.0
05 12:35 S 22 G 31 16.09 Fair CLR 23.6 6.4 33% 76.33 0.0
05 12:15 SW 15 16.09 Fair CLR 22.9 7.9 38% 76.33 0.0
05 11:55 S 13 16.09 Fair CLR 22.2 8.8 42% 76.35 0.0
05 11:35 SW 19 16.09 Fair CLR 22 9.1 44% 76.35 0.0
05 11:15 S 15 16.09 Fair CLR 21.2 9.8 48% 76.35 0.0
05 10:55 S 11 G 26 16.09 Fair CLR 20.7 9.6 49% 76.35 0.0
05 10:35 SW 17 16.09 Fair CLR 20.2 9.6 51% 76.35 0.0
05 10:15 SW 19 16.09 Fair CLR 19.6 10.1 54% 76.35 0.0
05 09:55 SW 17 G 28 16.09 Fair CLR 18.7 10.1 58% 76.35 0.0
05 09:35 SW 15 16.09 Fair CLR 17.8 10.4 62% 76.35 0.0
05 09:15 SW 17 16.09 Fair CLR 16.7 10.1 65% 76.35 0.0
05 08:35 SW 19 16.09 Fair CLR 15.7 9.6 67% 76.35 0.0
05 08:15 S 13 16.09 Fair CLR 15 9.4 69% 76.35 0.0
05 07:55 S 13 16.09 Fair CLR 14.3 9.1 16.3 12.7 71% 76.33 0.0
05 07:35 S 11 16.09 Fair CLR 13.6 9 74% 76.33 0.0
05 07:15 S 7 16.09 Fair CLR 12.7 8.6 76% 76.33 0.0
05 06:55 S 6 16.09 Fair CLR 12.7 8.4 75% 76.33 0.0
05 06:35 SW 7 16.09 Fair CLR 12.9 8.3 74% 76.3 0.0
05 06:15 SW 9 16.09 Fair CLR 13.2 8.2 72% 76.28 0.0
05 05:55 S 11 16.09 Fair CLR 13.8 8.2 69% 76.28 0.0
05 05:35 S 11 16.09 Fair CLR 14.1 8 67% 76.25 0.0
05 05:15 S 13 16.09 Fair CLR 14.3 8 66% 76.23 0.0
05 04:55 S 13 16.09 Fair CLR 14.5 7.7 64% 76.23 0.0
05 04:35 S 13 16.09 Fair CLR 14.5 7.6 64% 76.23 0.0
05 04:15 S 15 16.09 Fair CLR 14.7 7.5 62% 76.23 0.0
05 03:55 S 17 16.09 Fair CLR 15 7.5 61% 76.23 0.0
05 03:35 SW 17 16.09 Fair CLR 15.2 7.5 60% 76.2 0.0
05 03:15 S 15 16.09 Fair CLR 15.6 7.5 59% 76.2 0.0
05 02:55 S 15 G 26 16.09 Fair CLR 15.7 7.5 58% 76.2 0.0
05 02:35 S 15 16.09 Fair CLR 16 7.3 57% 76.2 0.0
05 02:15 S 13 16.09 Fair CLR 16.2 7.3 56% 76.2 0.0
05 01:55 S 15 16.09 Fair CLR 16.3 7.2 21.1 16.3 55% 76.2 0.0
05 01:35 S 17 16.09 Fair CLR 16.7 7.2 54% 76.2 0.0
05 01:15 S 17 16.09 Fair CLR 17.1 7 52% 76.23 0.0
05 00:55 S 19 G 28 16.09 Fair CLR 17.5 6.7 49% 76.23 0.0
05 00:35 S 19 G 28 16.09 Fair CLR 17.7 6.5 48% 76.23 0.0
05 00:15 S 15 16.09 Fair CLR 18 5.9 45% 76.23 0.0
04 23:55 S 11 16.09 Fair CLR 17.6 4.3 42% 76.23 0.0
04 23:35 S 11 16.09 Fair CLR 18.1 3.8 39% 76.23 0.0
04 23:15 S 13 16.09 Fair CLR 18.2 3.6 38% 76.23 0.0
04 22:55 S 9 16.09 Fair CLR 18 3 37% 76.23 0.0
04 22:35 S 11 16.09 Fair CLR 18.6 2 33% 76.23 0.0
04 22:15 S 9 16.09 Fair CLR 18.4 1.3 32% 76.2 0.0
04 21:55 S 7 16.09 Fair CLR 18.6 1.3 32% 76.2 0.0
04 21:35 S 11 16.09 Fair CLR 19 1.5 31% 76.17 0.0
04 21:15 S 9 16.09 Fair CLR 19.4 1.7 31% 76.17 0.0
04 20:55 Calm 16.09 Fair CLR 17.6 3.4 39% 76.15 0.0
04 20:35 Calm 16.09 Fair CLR 18.1 3.6 38% 76.12 0.0
04 20:15 Calm 16.09 Fair CLR 19.4 2.9 34% 76.12 0.0
04 19:55 Calm 16.09 Fair CLR 21.2 2.2 25 21.2 29% 76.1 0.0
04 19:35 S 6 16.09 Fair CLR 23 0.8 23% 76.1 0.0
04 19:15 S 9 16.09 Fair CLR 23.7 0.1 21% 76.1 0.0
04 18:55 S 11 16.09 Fair CLR 24.4 0.2 20% 25 76.07 0.0
04 18:35 S 13 16.09 Fair CLR 24.5 0.1 20% 25 76.07 0.0
04 18:15 SW 15 G 26 16.09 Fair CLR 24.8 -0.3 19% 25 76.1 0.0
04 17:55 SW 13 16.09 Fair CLR 24.6 0.9 21% 25 76.1 0.0
04 17:35 S 15 16.09 Fair CLR 24.7 2 23% 25 76.1 0.0
04 17:15 SW 9 16.09 Fair CLR 24.7 2.1 23% 25 76.1 0.0
04 16:55 S 17 16.09 Fair CLR 24.6 3.1 25% 25 76.1 0.0
04 16:35 SW 11 16.09 Fair CLR 24.7 2.8 24% 25 76.12 0.0
04 16:15 S 9 16.09 Fair CLR 24.4 2.9 25% 25 76.12 0.0
04 15:55 S 17 16.09 Fair CLR 24.3 2.3 24% 25 76.15 0.0
04 15:35 S 13 16.09 Fair CLR 24.2 2.6 24% 25 76.15 0.0
04 15:15 S 15 16.09 Fair CLR 24 2.3 24% 25 76.17 0.0
04 14:55 S 11 16.09 Fair CLR 24 2.3 24% 25 76.17 0.0
04 14:35 W 9 16.09 Fair CLR 23 2.6 26% 76.2 0.0
04 14:15 SW 19 16.09 Fair CLR 22.9 2 25% 76.2 0.0
04 13:55 S 7 16.09 Fair CLR 22.7 1.3 22.7 7.7 24% 76.23 0.0
04 13:35 Calm 16.09 Fair CLR 22.6 0.7 24% 76.23 0.0
04 13:15 W 6 16.09 Fair CLR 21.9 -0.1 23% 76.25 0.0
04 12:55 SW 9 16.09 Fair CLR 21.7 -0.4 23% 76.28 0.0
04 12:35 W 11 16.09 Fair CLR 21 1.2 27% 76.33 0.0
04 12:15 SW 11 16.09 Fair CLR 20.5 2.1 30% 76.35 0.0
04 11:55 SW 9 16.09 Fair CLR 19.6 3.5 35% 76.35 0.0
04 11:35 SW 9 16.09 Fair CLR 18.9 3.5 36% 76.38 0.0
04 11:15 W 6 16.09 Fair CLR 18.2 2.8 36% 76.38 0.0
04 10:55 NW 6 16.09 Fair CLR 17.3 6.1 48% 76.38 0.0
04 10:35 SW 6 16.09 Fair CLR 16.3 5.6 49% 76.38 0.0
04 10:15 Calm 16.09 Fair CLR 15.1 5.8 54% 76.38 0.0
04 09:55 S 9 16.09 Fair CLR 14.3 6 58% 76.35 0.0
04 09:35 W 6 16.09 Fair CLR 13 5.9 62% 76.38 0.0
04 09:15 SW 7 16.09 Fair CLR 12.8 6.2 64% 76.38 0.0
04 08:55 SW 9 16.09 Fair CLR 11.7 6.1 69% 76.38 0.0
04 08:35 SW 7 16.09 Fair CLR 10.8 6.4 74% 76.35 0.0
04 08:15 SW 6 16.09 Fair CLR 8.7 6.3 85% 76.35 0.0
04 07:55 Calm 16.09 Fair CLR 7.3 5.6 8.5 3.9 89% 76.38 0.0
04 07:35 Calm 16.09 Fair CLR 5.7 4.5 92% 76.38 0.0
04 07:15 Calm 16.09 Fair CLR 5.1 4 93% 76.38 0.0
04 06:55 Calm 16.09 Fair CLR 5 3.6 91% 76.38 0.0
04 06:35 Calm 16.09 Fair CLR 4.5 3.5 93% 76.35 0.0
04 06:15 Calm 16.09 Fair CLR 4 3 93% 76.38 0.0
04 05:55 Calm 16.09 Fair CLR 5.1 3.7 91% 76.35 0.0
04 05:35 Calm 16.09 Fair CLR 4 2.9 93% 76.35 0.0
04 05:15 Calm 16.09 Fair CLR 5 3.7 91% 76.35 0.0
04 04:55 Calm 16.09 Fair CLR 6 3.7 85% 76.35 0.0
04 04:35 Calm 16.09 Fair CLR 5.1 3.5 90% 76.33 0.0
04 04:15 Calm 16.09 Fair CLR 6.2 3.7 84% 76.33 0.0
04 03:55 Calm 16.09 Fair CLR 6 3.3 83% 76.33 0.0
04 03:35 Calm 16.09 Fair CLR 8.5 3.7 72% 76.33 0.0
04 03:15 Calm 16.09 Fair CLR 7.6 4 78% 76.33 0.0
04 02:55 Calm 16.09 Fair CLR 7.5 4.4 81% 76.33 0.0
04 02:35 Calm 16.09 Fair CLR 7.5 4.2 80% 76.33 0.0
04 02:15 Calm 16.09 Fair CLR 7.3 3.5 77% 76.35 0.0
04 01:55 Calm 16.09 Fair CLR 7.5 3.2 14.5 7.5 74% 76.35 0.0
04 01:35 Calm 16.09 Fair CLR 9.3 3.9 69% 76.35 0.0
04 01:15 Calm 16.09 Fair CLR 9.2 3.8 69% 76.35 0.0
04 00:55 Calm 16.09 Fair CLR 9.5 2.7 63% 76.35 0.0
04 00:35 Calm 16.09 Fair CLR 9.7 2.4 61% 76.35 0.0
04 00:15 Calm 16.09 Fair CLR 9.3 2.2 61% 76.35 0.0
03 23:55 Calm 16.09 Fair CLR 9.2 2.6 64% 76.38 0.0
03 23:35 Calm 16.09 Fair CLR 9.9 1.6 57% 76.38 0.0
03 23:15 Calm 16.09 Fair CLR 9.7 0.4 53% 76.38 0.0
03 22:55 Calm 16.09 Fair CLR 9.5 1.1 56% 76.35 0.0
03 22:35 Calm 16.09 Fair CLR 9.9 1.1 55% 76.35 0.0
03 22:15 SW 6 16.09 Fair CLR 10.3 1.3 54% 76.35 0.0
03 21:55 Calm 16.09 Fair CLR 10.7 1.5 53% 76.33 0.0
03 21:35 Calm 16.09 Fair CLR 10.6 1.7 54% 76.33 0.0
03 21:15 Calm 16.09 Fair CLR 10.3 2.8 60% 76.33 0.0
03 20:55 Calm 16.09 Fair CLR 10.7 3 59% 76.3 0.0
03 20:35 Calm 16.09 Fair CLR 11.5 2.5 54% 76.28 0.0
03 20:15 Calm 16.09 Fair CLR 13 1.8 47% 76.28 0.0
03 19:55 Calm 16.09 Fair CLR 14.7 1.5 18 14.7 41% 76.28 0.0
03 19:35 Calm 16.09 Fair CLR 17 -2.1 27% 76.25 0.0
03 19:15 SW 6 16.09 Fair CLR 17.5 -2.5 26% 76.28 0.0
03 18:55 SW 7 16.09 Fair CLR 17.5 -2.6 25% 76.28 0.0
03 18:35 NW 6 16.09 Fair CLR 17.5 -2.9 25% 76.28 0.0
03 18:15 NW 9 16.09 Fair CLR 17.7 -2.6 25% 76.3 0.0
03 17:55 NW 7 16.09 Fair CLR 17.6 -3.3 24% 76.3 0.0
03 17:35 Calm 16.09 Fair CLR 17.5 -3 25% 76.3 0.0
03 17:15 W 9 16.09 Fair CLR 17.7 -2.9 25% 76.3 0.0
03 16:35 SW 9 16.09 Fair CLR 17.3 -4.8 22% 76.33 0.0
03 16:15 NW 11 16.09 Fair CLR 17 -5.1 22% 76.35 0.0
03 15:55 W 15 16.09 Fair CLR 16.8 -4.8 23% 76.38 0.0
03 15:35 S 7 16.09 Fair CLR 17 -3.7 24% 76.38 0.0
03 15:15 Calm 16.09 Fair CLR 15.9 -4.3 25% 76.43 0.0
03 14:55 W 9 16.09 Fair CLR 16.5 -3.8 25% 76.43 0.0
03 14:35 NW 15 16.09 Fair CLR 16.7 -3.3 25% 76.43 0.0
03 14:15 W 9 16.09 Fair CLR 15.6 -2.8 28% 76.45 0.0
03 13:55 W 11 16.09 Fair CLR 15.2 -4.2 15.3 3.7 26% 76.48 0.0
03 13:35 NW 9 16.09 Fair CLR 14.8 -3.5 28% 76.48 0.0
03 13:15 NW 13 16.09 Fair CLR 15 -3.4 28% 76.5 0.0
03 12:55 NW 9 G 15 16.09 Fair CLR 14.1 -3.4 30% 76.53 0.0
03 12:35 NW 17 16.09 Fair CLR 14 -3.4 30% 76.56 0.0
03 12:15 NW 15 16.09 Fair CLR 13.9 -4.1 29% 76.56 0.0
03 11:55 NW 15 16.09 Fair CLR 13 -4 31% 76.58 0.0
03 11:35 NW 11 16.09 Fair CLR 12.9 -2.9 33% 76.58 0.0
03 11:15 N 7 16.09 Fair CLR 12.2 -2.9 35% 76.58 0.0
03 10:55 N 15 16.09 Fair CLR 11.7 -2.6 37% 76.58 0.0
03 10:35 NW 15 G 26 16.09 Fair CLR 11.5 -2.8 37% 76.58 0.0
03 10:15 N 17 16.09 Fair CLR 11.2 -2 40% 76.58 0.0
03 09:55 NW 19 G 28 16.09 Fair CLR 10.7 0.4 49% 76.58 0.0
03 09:35 NW 7 16.09 Fair CLR 10 1.8 57% 9 76.56 0.0
03 09:15 N 9 16.09 Fair CLR 8.7 2 63% 7 76.56 0.0
03 08:55 N 7 16.09 Fair CLR 7.8 2.3 68% 7 76.56 0.0
03 08:35 Calm 16.09 Fair CLR 6.4 3.1 80% 76.56 0.0
03 08:15 Calm 16.09 Fair CLR 5.2 2.5 83% 76.56 0.0
03 07:55 Calm 16.09 Fair CLR 3.5 2.6 3.5 1 94% 76.53 0.0
03 07:35 Calm 16.09 Fair CLR 2 1.6 97% 76.53 0.0
03 07:15 Calm 16.09 Fair CLR 1.7 1.2 97% 76.5 0.0
03 06:35 Calm 16.09 Fair CLR 1.1 0.8 98% 76.45 0.0
03 06:15 Calm 16.09 Fair CLR 1 0.3 95% 76.43 0.0
Date Time (edt) Wind (kph) Vis. (km) Weather Sky Cond. Air Dwpt Max. Min. Relative Humidity Wind Chill (°C) Heat Index (°C) altimeter (cm) sea level (mb) 1 hr 3 hr 6 hr
6 hour
Temperature (ºC) Pressure Precipitation (cm)